Time;durP1;ratioP1;P1;durP2;ratioP2;P2;SDS_P1;SDS_P2;PMS_P1;PMS_P2;Temp;Humidity;BMP_temperature;BMP_pressure;BME280_temperature;BME280_humidity;BME280_pressure;Samples;Min_cycle;Max_cycle;Signal;HPM_P1;HPM_P2
2024/01/26 00:02:19;;;;;;;14.80;9.33;;;;;;;;;;5087154;28;20680;-64
2024/01/26 00:04:46;;;;;;;17.83;8.97;;;;;;;;;;5075527;28;20210;-63
2024/01/26 00:07:13;;;;;;;15.87;8.37;;;;;;;;;;5086111;28;20233;-63
2024/01/26 00:09:42;;;;;;;14.87;9.10;;;;;;;;;;5085214;28;20272;-63
2024/01/26 00:12:09;;;;;;;14.00;8.33;;;;;;;;;;5086321;28;20225;-63
2024/01/26 00:14:36;;;;;;;18.77;9.00;;;;;;;;;;5086651;28;20209;-63
2024/01/26 00:17:03;;;;;;;12.60;8.37;;;;;;;;;;5085992;28;20625;-63
2024/01/26 00:19:30;;;;;;;12.83;8.77;;;;;;;;;;5086561;28;20214;-64
2024/01/26 00:21:58;;;;;;;16.00;8.63;;;;;;;;;;5085782;28;20213;-63
2024/01/26 00:24:25;;;;;;;14.47;8.83;;;;;;;;;;5076202;28;20194;-63
2024/01/26 00:26:53;;;;;;;15.43;9.00;;;;;;;;;;5085383;28;20210;-63
2024/01/26 00:29:21;;;;;;;14.80;8.80;;;;;;;;;;5086044;28;20729;-63
2024/01/26 00:31:48;;;;;;;12.27;8.80;;;;;;;;;;5086042;28;20218;-63
2024/01/26 00:34:14;;;;;;;14.50;7.73;;;;;;;;;;5082278;28;20203;-63
2024/01/26 00:36:44;;;;;;;15.50;9.07;;;;;;;;;;5083098;28;20616;-63
2024/01/26 00:39:11;;;;;;;14.70;8.37;;;;;;;;;;5086018;28;20203;-63
2024/01/26 00:41:38;;;;;;;12.73;8.07;;;;;;;;;;5082789;28;20199;-64
2024/01/26 00:44:06;;;;;;;19.47;9.10;;;;;;;;;;5085568;28;20210;-63
2024/01/26 00:46:33;;;;;;;13.90;8.73;;;;;;;;;;5085560;28;20213;-63
2024/01/26 00:49:00;;;;;;;13.07;8.03;;;;;;;;;;5085623;28;20227;-63
2024/01/26 00:51:27;;;;;;;17.57;8.97;;;;;;;;;;5088207;28;20275;-63
2024/01/26 00:53:54;;;;;;;13.87;8.17;;;;;;;;;;5074201;28;20530;-63
2024/01/26 00:56:21;;;;;;;15.13;8.70;;;;;;;;;;5078642;28;20206;-63
2024/01/26 00:58:48;;;;;;;17.20;8.87;;;;;;;;;;5089543;28;20296;-63
2024/01/26 01:01:17;;;;;;;12.63;8.10;;;;;;;;;;5088697;28;20275;-63
2024/01/26 01:03:44;;;;;;;13.70;8.93;;;;;;;;;;5094576;28;20221;-63
2024/01/26 01:06:11;;;;;;;15.67;8.83;;;;;;;;;;5070361;28;20211;-63
2024/01/26 01:08:38;;;;;;;16.00;8.80;;;;;;;;;;5086061;28;20265;-63
2024/01/26 01:11:06;;;;;;;16.40;8.80;;;;;;;;;;5085810;28;20280;-63
2024/01/26 01:13:33;;;;;;;14.17;8.43;;;;;;;;;;5088769;28;20897;-63
2024/01/26 01:16:01;;;;;;;12.03;8.23;;;;;;;;;;5087590;28;20213;-63
2024/01/26 01:18:29;;;;;;;11.33;8.07;;;;;;;;;;5085965;28;20294;-64
2024/01/26 01:20:56;;;;;;;12.00;7.63;;;;;;;;;;5080131;28;20207;-61
2024/01/26 01:23:23;;;;;;;10.67;7.10;;;;;;;;;;5088186;28;20203;-62
2024/01/26 01:25:51;;;;;;;13.33;7.80;;;;;;;;;;5088351;28;20206;-64
2024/01/26 01:28:18;;;;;;;13.50;7.63;;;;;;;;;;5088971;28;20215;-64
2024/01/26 01:30:45;;;;;;;10.43;7.77;;;;;;;;;;5091184;28;20386;-64
2024/01/26 01:33:12;;;;;;;14.27;8.00;;;;;;;;;;5089509;28;20211;-64
2024/01/26 01:35:40;;;;;;;11.57;7.80;;;;;;;;;;5088713;28;20285;-64
2024/01/26 01:38:07;;;;;;;11.83;8.00;;;;;;;;;;5088740;28;20199;-63
2024/01/26 01:40:34;;;;;;;12.03;8.13;;;;;;;;;;5088713;28;20198;-64
2024/01/26 01:43:02;;;;;;;13.17;8.33;;;;;;;;;;5088695;28;20579;-64
2024/01/26 01:45:29;;;;;;;12.93;7.33;;;;;;;;;;5084555;28;20210;-64
2024/01/26 01:47:56;;;;;;;11.70;7.60;;;;;;;;;;5088749;28;20646;-63
2024/01/26 01:50:24;;;;;;;15.53;8.33;;;;;;;;;;5087152;28;20256;-64
2024/01/26 01:52:54;;;;;;;10.97;8.23;;;;;;;;;;5088592;28;20611;-63
2024/01/26 01:55:21;;;;;;;10.33;7.30;;;;;;;;;;5078475;28;20555;-64
2024/01/26 01:57:50;;;;;;;11.50;8.03;;;;;;;;;;5088737;28;20898;-64
2024/01/26 02:00:17;;;;;;;12.23;7.87;;;;;;;;;;5088146;28;20251;-64
2024/01/26 02:02:46;;;;;;;12.00;8.50;;;;;;;;;;5086941;28;20673;-64
2024/01/26 02:05:13;;;;;;;14.73;8.53;;;;;;;;;;5087721;28;20290;-64
2024/01/26 02:07:40;;;;;;;13.90;8.37;;;;;;;;;;5087651;28;20289;-64
2024/01/26 02:10:09;;;;;;;16.67;9.67;;;;;;;;;;5087778;28;20242;-64
2024/01/26 02:12:36;;;;;;;12.47;8.27;;;;;;;;;;5089278;28;20198;-64
2024/01/26 02:15:04;;;;;;;14.13;9.00;;;;;;;;;;5087875;28;20204;-64
2024/01/26 02:17:31;;;;;;;10.53;7.83;;;;;;;;;;5087243;28;20202;-63
2024/01/26 02:19:59;;;;;;;14.47;8.67;;;;;;;;;;5097118;28;20289;-64
2024/01/26 02:22:26;;;;;;;14.47;8.90;;;;;;;;;;5088229;28;20941;-64
2024/01/26 02:24:54;;;;;;;13.50;9.00;;;;;;;;;;5087746;28;20218;-63
2024/01/26 02:27:21;;;;;;;14.47;9.40;;;;;;;;;;5087618;28;20210;-64
2024/01/26 02:29:48;;;;;;;13.57;9.40;;;;;;;;;;5086893;28;20218;-63
2024/01/26 02:32:15;;;;;;;14.40;9.43;;;;;;;;;;5097097;28;20203;-63
2024/01/26 02:34:43;;;;;;;13.97;8.97;;;;;;;;;;5087607;28;20692;-64
2024/01/26 02:37:11;;;;;;;16.23;9.27;;;;;;;;;;5087301;28;20218;-63
2024/01/26 02:39:38;;;;;;;15.30;9.43;;;;;;;;;;5091465;28;20198;-64
2024/01/26 02:42:06;;;;;;;13.87;8.77;;;;;;;;;;5086839;28;20699;-63
2024/01/26 02:44:33;;;;;;;15.13;8.63;;;;;;;;;;5086924;28;20202;-64
2024/01/26 02:47:00;;;;;;;15.73;9.70;;;;;;;;;;5087197;28;20582;-63
2024/01/26 02:49:28;;;;;;;16.73;9.87;;;;;;;;;;5086762;28;20222;-63
2024/01/26 02:51:55;;;;;;;15.57;9.50;;;;;;;;;;5087452;28;20236;-63
2024/01/26 02:54:22;;;;;;;16.73;10.13;;;;;;;;;;5080386;28;20222;-63
2024/01/26 02:56:49;;;;;;;16.23;9.23;;;;;;;;;;5087324;28;20758;-63
2024/01/26 02:59:17;;;;;;;16.70;10.50;;;;;;;;;;5086961;28;20230;-62
2024/01/26 03:01:46;;;;;;;16.10;9.43;;;;;;;;;;5086618;28;20680;-61
2024/01/26 03:04:13;;;;;;;21.50;10.20;;;;;;;;;;5095325;28;20240;-62
2024/01/26 03:06:40;;;;;;;18.77;10.63;;;;;;;;;;5093894;28;20233;-62
2024/01/26 03:09:08;;;;;;;18.83;10.70;;;;;;;;;;5086561;28;20222;-62
2024/01/26 03:11:38;;;;;;;17.93;10.03;;;;;;;;;;5085959;28;20218;-61
2024/01/26 03:14:05;;;;;;;18.67;9.93;;;;;;;;;;5081309;28;20305;-62
2024/01/26 03:16:34;;;;;;;16.17;10.47;;;;;;;;;;5078591;28;20214;-62
2024/01/26 03:19:01;;;;;;;19.73;10.57;;;;;;;;;;5086436;28;20228;-62
2024/01/26 03:21:28;;;;;;;16.87;10.97;;;;;;;;;;5086564;28;20214;-62
2024/01/26 03:23:55;;;;;;;17.53;10.33;;;;;;;;;;5087412;28;20206;-62
2024/01/26 03:26:22;;;;;;;18.50;10.10;;;;;;;;;;5086568;28;20206;-62
2024/01/26 03:28:50;;;;;;;18.40;10.60;;;;;;;;;;5086902;28;20226;-62
2024/01/26 03:31:17;;;;;;;16.87;10.30;;;;;;;;;;5085921;28;20283;-62
2024/01/26 03:33:46;;;;;;;16.87;10.53;;;;;;;;;;5086422;28;20209;-62
2024/01/26 03:36:13;;;;;;;23.00;11.77;;;;;;;;;;5083649;28;20305;-62
2024/01/26 03:38:40;;;;;;;23.83;11.47;;;;;;;;;;5086495;28;20214;-62
2024/01/26 03:41:07;;;;;;;21.37;11.63;;;;;;;;;;5086731;28;20217;-63
2024/01/26 03:43:34;;;;;;;18.97;11.13;;;;;;;;;;5083985;28;20824;-63
2024/01/26 03:46:03;;;;;;;17.37;10.50;;;;;;;;;;5086892;28;20218;-63
2024/01/26 03:48:30;;;;;;;21.30;11.20;;;;;;;;;;5086527;28;20222;-63
2024/01/26 03:50:58;;;;;;;18.20;10.10;;;;;;;;;;5087066;28;20214;-63
2024/01/26 03:53:25;;;;;;;19.87;11.33;;;;;;;;;;5086130;28;20215;-62
2024/01/26 03:55:53;;;;;;;21.83;11.60;;;;;;;;;;5086379;28;20214;-63
2024/01/26 03:58:20;;;;;;;22.20;10.57;;;;;;;;;;5086356;28;20296;-63
2024/01/26 04:00:47;;;;;;;17.63;10.20;;;;;;;;;;5086644;28;20228;-63
2024/01/26 04:03:14;;;;;;;18.57;9.97;;;;;;;;;;5088388;28;20213;-63
2024/01/26 04:05:41;;;;;;;17.97;10.50;;;;;;;;;;5098032;28;20203;-63
2024/01/26 04:08:10;;;;;;;23.23;11.77;;;;;;;;;;5086740;28;20257;-63
2024/01/26 04:10:37;;;;;;;20.27;10.37;;;;;;;;;;5086414;28;20295;-63
2024/01/26 04:13:04;;;;;;;16.77;10.73;;;;;;;;;;5086732;28;20198;-63
2024/01/26 04:15:31;;;;;;;20.43;10.67;;;;;;;;;;5086023;28;20209;-63
2024/01/26 04:17:58;;;;;;;20.27;10.70;;;;;;;;;;5087407;28;20224;-63
2024/01/26 04:20:25;;;;;;;20.00;10.30;;;;;;;;;;5085589;28;20205;-63
2024/01/26 04:22:52;;;;;;;19.30;11.47;;;;;;;;;;5086191;28;20673;-63
2024/01/26 04:25:20;;;;;;;18.17;10.97;;;;;;;;;;5085743;28;20225;-63
2024/01/26 04:27:48;;;;;;;18.17;10.80;;;;;;;;;;5090171;28;20210;-63
2024/01/26 04:30:15;;;;;;;20.10;10.60;;;;;;;;;;5090228;28;20214;-63
2024/01/26 04:32:42;;;;;;;19.97;10.87;;;;;;;;;;5089921;28;20867;-63
2024/01/26 04:35:11;;;;;;;20.27;10.33;;;;;;;;;;5090084;28;20205;-63
2024/01/26 04:37:38;;;;;;;17.70;10.37;;;;;;;;;;5090585;28;20209;-63
2024/01/26 04:40:06;;;;;;;18.33;9.43;;;;;;;;;;5090143;28;20202;-63
2024/01/26 04:42:34;;;;;;;18.03;10.07;;;;;;;;;;5090301;28;20206;-63
2024/01/26 04:45:02;;;;;;;18.70;9.73;;;;;;;;;;5089914;28;20210;-63
2024/01/26 04:47:29;;;;;;;17.13;9.83;;;;;;;;;;5088206;28;20230;-63
2024/01/26 04:49:56;;;;;;;16.30;9.83;;;;;;;;;;5090353;28;20321;-63
2024/01/26 04:52:23;;;;;;;15.00;8.87;;;;;;;;;;5089659;28;20206;-63
2024/01/26 04:54:50;;;;;;;15.43;8.93;;;;;;;;;;5089487;28;20199;-63
2024/01/26 04:57:17;;;;;;;15.17;9.20;;;;;;;;;;5091776;28;20206;-63
2024/01/26 04:59:45;;;;;;;12.50;7.90;;;;;;;;;;5091701;28;20729;-63
2024/01/26 05:02:12;;;;;;;15.77;8.93;;;;;;;;;;5097469;28;20209;-63
2024/01/26 05:04:39;;;;;;;16.13;8.70;;;;;;;;;;5094733;28;20213;-63
2024/01/26 05:07:07;;;;;;;11.10;7.90;;;;;;;;;;5085469;28;20222;-63
2024/01/26 05:09:34;;;;;;;16.03;8.33;;;;;;;;;;5089249;28;20344;-63
2024/01/26 05:12:01;;;;;;;14.40;7.90;;;;;;;;;;5090429;28;20552;-63
2024/01/26 05:14:28;;;;;;;13.40;7.83;;;;;;;;;;5089762;28;20203;-63
2024/01/26 05:16:57;;;;;;;13.97;8.43;;;;;;;;;;5089841;28;20248;-63
2024/01/26 05:19:24;;;;;;;10.57;7.30;;;;;;;;;;5090420;28;20202;-63
2024/01/26 05:21:51;;;;;;;11.43;7.13;;;;;;;;;;5089784;28;20209;-63
2024/01/26 05:24:18;;;;;;;11.10;7.47;;;;;;;;;;5089658;28;20218;-63
2024/01/26 05:26:45;;;;;;;14.80;7.37;;;;;;;;;;5100180;28;20676;-63
2024/01/26 05:29:14;;;;;;;9.60;6.37;;;;;;;;;;5083531;28;20231;-63
2024/01/26 05:31:41;;;;;;;11.37;7.37;;;;;;;;;;5083667;28;20202;-63
2024/01/26 05:34:10;;;;;;;9.13;6.40;;;;;;;;;;5088834;28;20210;-63
2024/01/26 05:36:41;;;;;;;11.93;7.00;;;;;;;;;;5079079;28;20784;-62
2024/01/26 05:39:08;;;;;;;8.00;6.13;;;;;;;;;;5088972;28;20222;-62
2024/01/26 05:41:35;;;;;;;6.77;5.50;;;;;;;;;;5073936;28;20209;-62
2024/01/26 05:44:02;;;;;;;8.13;5.63;;;;;;;;;;5088920;28;20206;-62
2024/01/26 05:46:29;;;;;;;7.23;5.50;;;;;;;;;;5088565;28;20419;-62
2024/01/26 05:48:57;;;;;;;5.83;5.23;;;;;;;;;;5088556;28;20340;-62
2024/01/26 05:51:25;;;;;;;8.37;5.50;;;;;;;;;;5090172;28;20264;-62
2024/01/26 05:53:52;;;;;;;7.17;5.10;;;;;;;;;;5099762;28;20206;-62
2024/01/26 05:56:20;;;;;;;5.80;4.80;;;;;;;;;;5089891;28;20206;-62
2024/01/26 05:58:47;;;;;;;6.27;5.17;;;;;;;;;;5091189;28;20265;-62
2024/01/26 06:01:14;;;;;;;5.27;4.53;;;;;;;;;;5086285;28;20211;-62
2024/01/26 06:03:41;;;;;;;4.73;4.33;;;;;;;;;;5088761;28;20221;-62
2024/01/26 06:06:08;;;;;;;5.77;4.10;;;;;;;;;;5081648;28;20218;-62
2024/01/26 06:08:37;;;;;;;5.63;5.03;;;;;;;;;;5081578;28;20636;-61
2024/01/26 06:11:06;;;;;;;4.83;4.33;;;;;;;;;;5087990;28;20380;-62
2024/01/26 06:13:33;;;;;;;4.77;3.77;;;;;;;;;;5087763;28;20195;-65
2024/01/26 06:16:00;;;;;;;4.57;4.03;;;;;;;;;;5077216;28;20209;-61
2024/01/26 06:18:27;;;;;;;3.90;3.60;;;;;;;;;;5088519;28;20245;-61
2024/01/26 06:20:54;;;;;;;4.37;3.33;;;;;;;;;;5088070;28;20213;-61
2024/01/26 06:23:21;;;;;;;3.87;3.57;;;;;;;;;;5088215;28;20203;-62
2024/01/26 06:25:49;;;;;;;3.43;3.10;;;;;;;;;;5087733;28;20213;-62
2024/01/26 06:28:16;;;;;;;3.40;3.10;;;;;;;;;;5087884;28;20643;-62
2024/01/26 06:30:43;;;;;;;4.87;3.00;;;;;;;;;;5087709;28;20238;-59
2024/01/26 06:33:10;;;;;;;3.27;3.07;;;;;;;;;;5092207;28;20202;-63
2024/01/26 06:35:38;;;;;;;3.03;2.80;;;;;;;;;;5087421;28;20254;-64
2024/01/26 06:38:05;;;;;;;4.57;3.03;;;;;;;;;;5088345;28;20583;-62
2024/01/26 06:40:32;;;;;;;3.10;2.90;;;;;;;;;;5085147;28;20199;-62
2024/01/26 06:43:05;;;;;;;2.70;2.60;;;;;;;;;;5088036;28;20219;-62
2024/01/26 06:45:32;;;;;;;3.83;2.63;;;;;;;;;;5074615;28;20199;-62
2024/01/26 06:48:00;;;;;;;2.67;2.57;;;;;;;;;;5098696;28;20217;-62
2024/01/26 06:50:27;;;;;;;2.67;2.47;;;;;;;;;;5095833;28;20232;-62
2024/01/26 06:52:54;;;;;;;4.57;2.33;;;;;;;;;;5105658;28;20369;-62
2024/01/26 06:55:21;;;;;;;3.53;2.37;;;;;;;;;;5083859;28;21964;-62
2024/01/26 06:57:48;;;;;;;2.20;2.00;;;;;;;;;;5077257;28;20237;-62
2024/01/26 07:00:17;;;;;;;2.13;2.03;;;;;;;;;;5077873;28;20203;-62
2024/01/26 07:02:44;;;;;;;2.47;2.27;;;;;;;;;;5087472;28;20312;-63
2024/01/26 07:05:16;;;;;;;2.23;2.17;;;;;;;;;;5088921;28;20226;-63
2024/01/26 07:07:43;;;;;;;2.33;2.17;;;;;;;;;;5082990;28;20210;-63
2024/01/26 07:10:11;;;;;;;2.30;2.20;;;;;;;;;;5087828;28;20303;-63
2024/01/26 07:12:38;;;;;;;3.40;1.97;;;;;;;;;;5087125;28;20563;-63
2024/01/26 07:15:05;;;;;;;2.53;2.40;;;;;;;;;;5087485;28;20218;-62
2024/01/26 07:17:34;;;;;;;2.00;1.90;;;;;;;;;;5086966;28;20226;-62
2024/01/26 07:20:01;;;;;;;2.00;1.90;;;;;;;;;;5097824;28;20826;-62
2024/01/26 07:22:28;;;;;;;2.40;2.07;;;;;;;;;;5087017;28;20309;-62
2024/01/26 07:24:55;;;;;;;2.30;2.07;;;;;;;;;;5087852;28;20511;-62
2024/01/26 07:27:22;;;;;;;2.20;2.10;;;;;;;;;;5086692;28;20336;-63
2024/01/26 07:29:49;;;;;;;1.93;1.93;;;;;;;;;;5086937;28;20257;-61
2024/01/26 07:32:16;;;;;;;2.60;2.50;;;;;;;;;;5085161;28;20199;-62
2024/01/26 07:34:44;;;;;;;3.13;2.20;;;;;;;;;;5091799;28;20206;-62
2024/01/26 07:37:12;;;;;;;2.27;2.17;;;;;;;;;;5103981;28;20210;-62
2024/01/26 07:39:39;;;;;;;2.27;2.17;;;;;;;;;;5091635;28;20213;-62
2024/01/26 07:42:06;;;;;;;2.13;2.03;;;;;;;;;;5085809;28;20202;-62
2024/01/26 07:44:33;;;;;;;2.17;2.07;;;;;;;;;;5086990;28;20292;-62
2024/01/26 07:47:00;;;;;;;2.30;2.20;;;;;;;;;;5073081;28;20207;-62
2024/01/26 07:49:27;;;;;;;2.23;2.13;;;;;;;;;;5066173;28;20223;-62
2024/01/26 07:51:55;;;;;;;2.73;2.60;;;;;;;;;;5066666;28;20226;-62
2024/01/26 07:54:22;;;;;;;2.40;2.30;;;;;;;;;;5066192;28;20202;-62
2024/01/26 07:56:49;;;;;;;2.73;2.27;;;;;;;;;;5080735;28;20221;-62
2024/01/26 07:59:16;;;;;;;2.07;1.97;;;;;;;;;;5086163;28;20844;-62
2024/01/26 08:01:43;;;;;;;2.30;2.20;;;;;;;;;;5086252;28;20213;-62
2024/01/26 08:04:10;;;;;;;2.40;2.20;;;;;;;;;;5086897;28;20210;-62
2024/01/26 08:06:37;;;;;;;2.23;2.13;;;;;;;;;;5086005;28;20213;-62
2024/01/26 08:09:07;;;;;;;2.60;2.50;;;;;;;;;;5086387;28;20681;-63
2024/01/26 08:11:34;;;;;;;3.00;2.70;;;;;;;;;;5085837;28;20264;-63
2024/01/26 08:14:02;;;;;;;2.40;2.30;;;;;;;;;;5066430;28;20238;-63
2024/01/26 08:16:29;;;;;;;3.10;2.73;;;;;;;;;;5066369;28;20222;-62
2024/01/26 08:18:56;;;;;;;3.13;2.80;;;;;;;;;;5084291;28;20213;-62
2024/01/26 08:21:23;;;;;;;3.20;2.97;;;;;;;;;;5086090;28;20213;-62
2024/01/26 08:23:50;;;;;;;3.07;2.87;;;;;;;;;;5086411;28;20241;-62
2024/01/26 08:26:19;;;;;;;3.27;3.00;;;;;;;;;;5086385;28;20210;-63
2024/01/26 08:28:46;;;;;;;3.60;2.90;;;;;;;;;;5086519;28;20525;-63
2024/01/26 08:31:13;;;;;;;3.03;2.73;;;;;;;;;;5085392;28;20330;-63
2024/01/26 08:33:41;;;;;;;3.10;2.80;;;;;;;;;;5086128;28;20217;-64
2024/01/26 08:36:08;;;;;;;6.93;2.90;;;;;;;;;;5086532;28;20334;-63
2024/01/26 08:38:35;;;;;;;2.77;2.67;;;;;;;;;;5085860;28;20220;-63
2024/01/26 08:41:02;;;;;;;2.87;2.70;;;;;;;;;;5086049;28;20202;-63
2024/01/26 08:43:31;;;;;;;3.40;3.20;;;;;;;;;;5085785;28;20209;-63
2024/01/26 08:45:58;;;;;;;3.73;3.43;;;;;;;;;;5085602;28;20232;-63
2024/01/26 08:48:25;;;;;;;3.37;3.17;;;;;;;;;;5065672;28;20587;-63
2024/01/26 08:50:52;;;;;;;3.53;3.23;;;;;;;;;;5066180;28;20326;-62
2024/01/26 08:53:19;;;;;;;3.20;2.90;;;;;;;;;;5065048;28;20211;-62
2024/01/26 08:55:46;;;;;;;3.30;3.10;;;;;;;;;;5067036;28;20215;-63
2024/01/26 08:58:15;;;;;;;3.63;3.30;;;;;;;;;;5067956;28;20818;-63
2024/01/26 09:00:44;;;;;;;3.37;3.17;;;;;;;;;;5100036;28;20194;-64
2024/01/26 09:03:14;;;;;;;3.27;3.07;;;;;;;;;;5091704;28;20223;-64
2024/01/26 09:05:41;;;;;;;4.40;3.60;;;;;;;;;;5092000;28;20644;-63
2024/01/26 09:08:08;;;;;;;4.87;3.33;;;;;;;;;;5099214;28;20206;-64
2024/01/26 09:10:35;;;;;;;4.23;3.10;;;;;;;;;;5086075;28;20237;-63
2024/01/26 09:13:03;;;;;;;6.40;3.90;;;;;;;;;;5086674;28;20518;-62
2024/01/26 09:15:30;;;;;;;5.10;4.70;;;;;;;;;;5088518;28;20282;-63
2024/01/26 09:17:58;;;;;;;4.17;3.47;;;;;;;;;;5090029;28;20734;-62
2024/01/26 09:20:25;;;;;;;4.73;3.40;;;;;;;;;;5096695;28;20206;-62
2024/01/26 09:22:52;;;;;;;5.07;3.20;;;;;;;;;;5108278;28;20197;-62
2024/01/26 09:25:19;;;;;;;2.97;2.77;;;;;;;;;;5089420;28;20214;-63
2024/01/26 09:27:46;;;;;;;5.33;3.33;;;;;;;;;;5089833;28;20198;-62
2024/01/26 09:30:13;;;;;;;3.20;3.00;;;;;;;;;;5088761;28;20695;-62
2024/01/26 09:32:40;;;;;;;3.90;3.60;;;;;;;;;;5100550;28;20198;-62
2024/01/26 09:35:09;;;;;;;4.70;3.40;;;;;;;;;;5080536;28;20214;-64
2024/01/26 09:37:36;;;;;;;3.37;3.17;;;;;;;;;;5087950;28;20206;-65
2024/01/26 09:40:04;;;;;;;3.80;3.50;;;;;;;;;;5089574;28;20206;-63
2024/01/26 09:42:31;;;;;;;3.33;3.07;;;;;;;;;;5088689;28;20234;-60
2024/01/26 09:45:01;;;;;;;2.63;2.43;;;;;;;;;;5087821;28;20209;-61
2024/01/26 09:47:28;;;;;;;2.60;2.40;;;;;;;;;;5073594;28;20207;-65
2024/01/26 09:49:56;;;;;;;2.37;2.27;;;;;;;;;;5089028;28;20198;-62
2024/01/26 09:52:25;;;;;;;2.87;2.10;;;;;;;;;;5098946;28;20324;-62
2024/01/26 09:54:53;;;;;;;1.97;1.87;;;;;;;;;;5095186;28;20206;-61
2024/01/26 09:57:22;;;;;;;2.20;2.00;;;;;;;;;;5077311;28;20222;-62
2024/01/26 09:59:51;;;;;;;2.40;2.30;;;;;;;;;;5086870;28;20206;-63
2024/01/26 10:02:18;;;;;;;2.50;2.33;;;;;;;;;;5090448;28;20326;-63
2024/01/26 10:04:45;;;;;;;2.37;2.27;;;;;;;;;;5091162;28;20217;-62
2024/01/26 10:07:12;;;;;;;2.73;2.63;;;;;;;;;;5087751;28;20214;-62
2024/01/26 10:09:41;;;;;;;3.60;2.53;;;;;;;;;;5087524;28;20799;-63
2024/01/26 10:12:09;;;;;;;2.00;1.93;;;;;;;;;;5080687;28;20226;-63
2024/01/26 10:14:36;;;;;;;3.33;2.37;;;;;;;;;;5068452;28;20211;-63
2024/01/26 10:17:05;;;;;;;2.77;2.60;;;;;;;;;;5065842;28;20222;-62
2024/01/26 10:19:34;;;;;;;2.33;2.23;;;;;;;;;;5068681;28;20253;-63
2024/01/26 10:22:01;;;;;;;2.40;2.17;;;;;;;;;;5069053;28;20234;-62
2024/01/26 10:24:29;;;;;;;2.63;2.40;;;;;;;;;;5094172;28;20684;-63
2024/01/26 10:26:57;;;;;;;3.10;3.00;;;;;;;;;;5092319;28;20289;-62
2024/01/26 10:29:25;;;;;;;4.30;3.03;;;;;;;;;;5069461;28;20276;-62
2024/01/26 10:31:52;;;;;;;2.80;2.70;;;;;;;;;;5088235;28;20226;-63
2024/01/26 10:34:19;;;;;;;2.87;2.77;;;;;;;;;;5087859;28;20212;-62
2024/01/26 10:36:47;;;;;;;3.53;3.10;;;;;;;;;;5089010;28;20656;-62
2024/01/26 10:39:17;;;;;;;3.50;3.17;;;;;;;;;;5087365;28;20206;-62
2024/01/26 10:41:48;;;;;;;2.73;2.63;;;;;;;;;;5089974;28;20206;-62
2024/01/26 10:44:17;;;;;;;2.83;2.67;;;;;;;;;;5096565;28;20206;-62
2024/01/26 10:46:45;;;;;;;3.33;3.03;;;;;;;;;;5104195;28;20198;-63
2024/01/26 10:49:13;;;;;;;4.43;2.70;;;;;;;;;;5095042;28;20564;-64
2024/01/26 10:51:40;;;;;;;2.60;2.40;;;;;;;;;;5106840;28;20229;-63
2024/01/26 10:54:10;;;;;;;2.37;2.37;;;;;;;;;;5099915;28;20210;-64
2024/01/26 10:56:37;;;;;;;2.60;2.40;;;;;;;;;;5089095;28;20571;-65
2024/01/26 10:59:04;;;;;;;2.57;2.40;;;;;;;;;;5098654;28;20283;-65
2024/01/26 11:01:32;;;;;;;2.80;2.23;;;;;;;;;;5087053;28;20578;-63
2024/01/26 11:03:59;;;;;;;2.63;2.53;;;;;;;;;;5099491;28;20214;-63
2024/01/26 11:06:29;;;;;;;3.10;2.70;;;;;;;;;;5101031;28;20205;-63
2024/01/26 11:08:57;;;;;;;2.50;2.40;;;;;;;;;;5107462;28;20293;-63
2024/01/26 11:11:24;;;;;;;3.10;2.90;;;;;;;;;;5081408;28;20250;-64
2024/01/26 11:13:53;;;;;;;3.80;2.90;;;;;;;;;;5074241;28;20225;-63
2024/01/26 11:16:25;;;;;;;2.67;2.57;;;;;;;;;;5091049;28;20199;-62
2024/01/26 11:18:58;;;;;;;2.57;2.47;;;;;;;;;;5087796;28;20218;-62
2024/01/26 11:21:25;;;;;;;5.33;2.60;;;;;;;;;;5087121;28;20293;-63
2024/01/26 11:23:52;;;;;;;2.77;2.67;;;;;;;;;;5086437;28;20225;-62
2024/01/26 11:26:19;;;;;;;3.97;2.20;;;;;;;;;;5087815;28;20206;-62
2024/01/26 11:28:47;;;;;;;2.33;2.23;;;;;;;;;;5086241;28;20218;-62
2024/01/26 11:31:15;;;;;;;2.10;2.00;;;;;;;;;;5087311;28;20232;-62
2024/01/26 11:33:42;;;;;;;2.00;1.90;;;;;;;;;;5086962;28;20636;-63
2024/01/26 11:36:11;;;;;;;3.07;1.93;;;;;;;;;;5066626;28;20301;-63
2024/01/26 11:38:38;;;;;;;2.30;2.20;;;;;;;;;;5067122;28;20597;-62
2024/01/26 11:41:06;;;;;;;1.73;1.67;;;;;;;;;;5067447;28;20331;-63
2024/01/26 11:43:34;;;;;;;1.50;1.40;;;;;;;;;;5066949;28;20207;-63
2024/01/26 11:46:01;;;;;;;1.27;1.27;;;;;;;;;;5069440;28;20699;-63
2024/01/26 11:48:28;;;;;;;1.27;1.27;;;;;;;;;;5089087;28;20218;-63
2024/01/26 11:50:55;;;;;;;1.17;1.17;;;;;;;;;;5096090;28;20232;-62
2024/01/26 11:53:24;;;;;;;1.00;1.00;;;;;;;;;;5107077;28;20297;-62
2024/01/26 11:55:52;;;;;;;0.90;0.90;;;;;;;;;;5080799;28;20225;-67
2024/01/26 11:58:19;;;;;;;1.33;0.80;;;;;;;;;;5103101;28;20308;-63
2024/01/26 12:00:46;;;;;;;0.63;0.63;;;;;;;;;;5071829;28;20198;-62
2024/01/26 12:03:15;;;;;;;0.80;0.80;;;;;;;;;;5087061;28;20202;-64
2024/01/26 12:05:42;;;;;;;0.70;0.70;;;;;;;;;;5093639;28;20208;-62
2024/01/26 12:08:10;;;;;;;0.60;0.60;;;;;;;;;;5105812;28;20209;-62
2024/01/26 12:10:39;;;;;;;0.77;0.77;;;;;;;;;;5095015;28;20241;-63
2024/01/26 12:13:06;;;;;;;0.60;0.60;;;;;;;;;;5106905;28;20683;-63
2024/01/26 12:15:38;;;;;;;0.87;0.70;;;;;;;;;;5103070;28;20714;-63
2024/01/26 12:18:08;;;;;;;0.60;0.60;;;;;;;;;;5076879;28;20202;-63
2024/01/26 12:20:35;;;;;;;0.60;0.60;;;;;;;;;;5096043;28;20209;-62
2024/01/26 12:23:04;;;;;;;0.50;0.50;;;;;;;;;;5103010;28;20225;-62
2024/01/26 12:25:31;;;;;;;0.50;0.50;;;;;;;;;;5086424;28;20588;-62
2024/01/26 12:28:02;;;;;;;0.50;0.50;;;;;;;;;;5086132;28;20560;-62
2024/01/26 12:30:29;;;;;;;0.50;0.50;;;;;;;;;;5086489;28;20313;-63
2024/01/26 12:33:04;;;;;;;0.30;0.30;;;;;;;;;;5086272;28;20226;-62
2024/01/26 12:35:33;;;;;;;6.80;1.00;;;;;;;;;;5073369;28;20742;-63
2024/01/26 12:38:00;;;;;;;0.53;0.53;;;;;;;;;;5103377;28;20212;-62
2024/01/26 12:40:27;;;;;;;0.50;0.50;;;;;;;;;;5090191;28;20226;-62
2024/01/26 12:42:54;;;;;;;0.40;0.40;;;;;;;;;;5086233;28;20229;-61
2024/01/26 12:45:23;;;;;;;0.67;0.50;;;;;;;;;;5085584;28;20203;-61
2024/01/26 12:47:50;;;;;;;0.40;0.40;;;;;;;;;;5090388;28;20626;-62
2024/01/26 12:50:17;;;;;;;0.30;0.30;;;;;;;;;;5110160;28;20208;-62
2024/01/26 12:52:44;;;;;;;0.30;0.30;;;;;;;;;;5106321;28;20227;-65
2024/01/26 12:55:11;;;;;;;0.30;0.30;;;;;;;;;;5089292;28;20528;-62
2024/01/26 12:57:38;;;;;;;2.37;0.40;;;;;;;;;;5089031;28;20210;-62
2024/01/26 13:00:05;;;;;;;0.53;0.53;;;;;;;;;;5089864;28;20282;-62
2024/01/26 13:02:35;;;;;;;0.30;0.30;;;;;;;;;;5091939;28;20225;-62
2024/01/26 13:05:02;;;;;;;0.20;0.20;;;;;;;;;;5108374;28;20202;-63
2024/01/26 13:07:32;;;;;;;0.37;0.37;;;;;;;;;;5099598;28;20718;-63
2024/01/26 13:09:59;;;;;;;0.93;0.50;;;;;;;;;;5093796;28;20261;-62
2024/01/26 13:12:26;;;;;;;0.83;0.50;;;;;;;;;;5109685;28;20224;-62
2024/01/26 13:14:53;;;;;;;0.40;0.40;;;;;;;;;;5108168;28;20217;-62
2024/01/26 13:17:21;;;;;;;1.50;0.80;;;;;;;;;;5084851;28;20599;-65
2024/01/26 13:19:49;;;;;;;1.43;1.40;;;;;;;;;;5103179;28;20202;-65
2024/01/26 13:22:16;;;;;;;0.70;0.70;;;;;;;;;;5109957;28;20212;-72
2024/01/26 13:24:43;;;;;;;1.50;0.60;;;;;;;;;;5109679;28;20668;-63
2024/01/26 13:27:11;;;;;;;0.40;0.40;;;;;;;;;;5105958;28;20212;-63
2024/01/26 13:29:38;;;;;;;0.50;0.50;;;;;;;;;;5089365;28;20234;-62
2024/01/26 13:32:06;;;;;;;1.07;1.07;;;;;;;;;;5108208;28;20221;-64
2024/01/26 13:34:33;;;;;;;0.87;0.57;;;;;;;;;;5109310;28;20243;-63
2024/01/26 13:37:02;;;;;;;0.60;0.60;;;;;;;;;;5103895;28;20247;-63
2024/01/26 13:39:29;;;;;;;0.47;0.47;;;;;;;;;;5097956;28;20208;-63
2024/01/26 13:41:56;;;;;;;0.33;0.33;;;;;;;;;;5109311;28;20253;-62
2024/01/26 13:44:23;;;;;;;2.87;0.57;;;;;;;;;;5099159;28;20233;-62
2024/01/26 13:46:50;;;;;;;0.30;0.30;;;;;;;;;;5089565;28;20664;-62
2024/01/26 13:49:17;;;;;;;0.30;0.30;;;;;;;;;;5088788;28;20213;-63
2024/01/26 13:51:44;;;;;;;0.50;0.50;;;;;;;;;;5088122;28;20306;-63
2024/01/26 13:54:14;;;;;;;1.47;0.40;;;;;;;;;;5088141;28;20644;-62
2024/01/26 13:56:41;;;;;;;1.27;0.70;;;;;;;;;;5086948;28;20211;-62
2024/01/26 13:59:08;;;;;;;3.07;0.70;;;;;;;;;;5095186;28;20226;-62
2024/01/26 14:01:37;;;;;;;1.20;1.00;;;;;;;;;;5089002;28;20207;-61
2024/01/26 14:04:06;;;;;;;1.33;1.13;;;;;;;;;;5092804;28;20201;-61
2024/01/26 14:06:33;;;;;;;3.20;1.93;;;;;;;;;;5086461;28;20198;-61
2024/01/26 14:09:01;;;;;;;2.50;0.80;;;;;;;;;;5092319;28;20577;-60
2024/01/26 14:11:29;;;;;;;3.83;1.27;;;;;;;;;;5092468;28;20264;-61
2024/01/26 14:13:56;;;;;;;2.77;0.90;;;;;;;;;;5092229;28;20213;-63
2024/01/26 14:16:23;;;;;;;2.20;0.87;;;;;;;;;;5087478;28;20692;-63
2024/01/26 14:18:50;;;;;;;2.53;1.10;;;;;;;;;;5088752;28;20226;-62
2024/01/26 14:21:17;;;;;;;0.80;0.80;;;;;;;;;;5082713;28;20502;-62
2024/01/26 14:23:44;;;;;;;4.00;1.47;;;;;;;;;;5094581;28;20206;-62
2024/01/26 14:26:11;;;;;;;1.03;1.00;;;;;;;;;;5106941;28;20213;-64
2024/01/26 14:28:39;;;;;;;2.20;1.20;;;;;;;;;;5102145;28;20552;-63
2024/01/26 14:31:07;;;;;;;4.33;0.57;;;;;;;;;;5081618;28;20456;-63
2024/01/26 14:33:34;;;;;;;3.57;0.80;;;;;;;;;;5088474;28;20222;-63
2024/01/26 14:36:02;;;;;;;1.13;0.70;;;;;;;;;;5085929;28;20548;-64
2024/01/26 14:38:29;;;;;;;0.77;0.77;;;;;;;;;;5088292;28;20206;-63